Time;durP1;ratioP1;P1;durP2;ratioP2;P2;SDS_P1;SDS_P2;PMS_P1;PMS_P2;Temp;Humidity;BMP_temperature;BMP_pressure;BME280_temperature;BME280_humidity;BME280_pressure;Samples;Min_cycle;Max_cycle;Signal;HPM_P1;HPM_P2
2021/11/10 00:00:11;;;;;;;32.40;11.73;;;11.20;99.90;;;;;;5085658;27;1318137;-78
2021/11/10 00:02:37;;;;;;;37.63;12.13;;;11.10;99.90;;;;;;5142102;27;37643;-77
2021/11/10 00:05:04;;;;;;;29.00;11.10;;;11.10;99.90;;;;;;5143937;27;38011;-78
2021/11/10 00:07:31;;;;;;;41.47;12.68;;;11.10;99.90;;;;;;5144855;27;48238;-77
2021/11/10 00:09:57;;;;;;;32.47;12.73;;;11.10;99.90;;;;;;5146921;27;40387;-77
2021/11/10 00:12:23;;;;;;;43.03;13.13;;;11.10;99.90;;;;;;5131140;27;38547;-77
2021/11/10 00:14:50;;;;;;;30.40;11.63;;;11.10;99.90;;;;;;5132913;27;38668;-78
2021/11/10 00:17:16;;;;;;;40.30;14.10;;;11.10;99.90;;;;;;5130923;27;37177;-78
2021/11/10 00:19:42;;;;;;;40.33;14.13;;;11.00;99.90;;;;;;5135946;27;37240;-77
2021/11/10 00:22:08;;;;;;;36.07;14.00;;;11.00;99.90;;;;;;5129189;27;38708;-78
2021/11/10 00:24:34;;;;;;;35.53;13.20;;;11.00;99.90;;;;;;5144394;27;39869;-77
2021/11/10 00:27:00;;;;;;;35.80;14.35;;;11.00;99.90;;;;;;5130771;27;39055;-77
2021/11/10 00:29:26;;;;;;;36.58;14.68;;;11.00;99.90;;;;;;5140353;27;40731;-77
2021/11/10 00:31:52;;;;;;;48.67;17.67;;;11.00;99.90;;;;;;5138975;27;40083;-78
2021/11/10 00:34:18;;;;;;;51.08;19.15;;;11.00;99.90;;;;;;5119679;27;38212;-77
2021/11/10 00:36:45;;;;;;;54.57;18.57;;;11.00;99.90;;;;;;5120185;27;36895;-77
2021/11/10 00:39:11;;;;;;;55.63;20.37;;;11.00;99.90;;;;;;5123449;27;38577;-78
2021/11/10 00:41:37;;;;;;;52.33;19.73;;;11.00;99.90;;;;;;5110642;27;38619;-78
2021/11/10 00:44:04;;;;;;;61.72;20.10;;;11.00;99.90;;;;;;5131963;27;39304;-78
2021/11/10 00:46:31;;;;;;;50.53;19.63;;;11.00;99.90;;;;;;5134212;27;36886;-77
2021/11/10 00:48:59;;;;;;;58.53;22.08;;;11.00;99.90;;;;;;5134279;27;38482;-77
2021/11/10 00:51:26;;;;;;;58.70;21.20;;;11.00;99.90;;;;;;5132429;27;38965;-77
2021/11/10 00:53:52;;;;;;;54.33;21.20;;;11.00;99.90;;;;;;5131578;27;38089;-76
2021/11/10 00:56:18;;;;;;;55.43;22.17;;;11.00;99.90;;;;;;5136794;27;37307;-78
2021/11/10 00:58:45;;;;;;;51.70;20.45;;;11.00;99.90;;;;;;5132866;27;38919;-78
2021/11/10 01:01:11;;;;;;;57.60;21.48;;;11.00;99.90;;;;;;5149317;27;37710;-78
2021/11/10 01:03:38;;;;;;;63.77;22.43;;;10.90;99.90;;;;;;5132524;27;38818;-78
2021/11/10 01:06:04;;;;;;;56.22;21.30;;;11.00;99.90;;;;;;5138843;27;38704;-77
2021/11/10 01:08:30;;;;;;;58.42;22.73;;;11.00;99.90;;;;;;5137031;27;38668;-78
2021/11/10 01:10:57;;;;;;;61.92;22.35;;;10.90;99.90;;;;;;5124161;27;39099;-78
2021/11/10 01:13:25;;;;;;;56.50;21.30;;;11.00;99.90;;;;;;5138233;27;37774;-78
2021/11/10 01:15:51;;;;;;;52.00;20.85;;;10.90;99.90;;;;;;5144086;27;38222;-78
2021/11/10 01:18:17;;;;;;;66.20;23.75;;;10.90;99.90;;;;;;5110546;27;40377;-77
2021/11/10 01:20:43;;;;;;;52.60;20.63;;;10.90;99.90;;;;;;5126401;27;40255;-78
2021/11/10 01:23:11;;;;;;;61.23;21.47;;;10.90;99.90;;;;;;5134340;27;38644;-78
2021/11/10 01:25:38;;;;;;;46.97;18.80;;;10.90;99.90;;;;;;5130724;27;37329;-78
2021/11/10 01:28:07;;;;;;;48.10;19.90;;;10.90;99.90;;;;;;5142898;27;38550;-78
2021/11/10 01:30:33;;;;;;;51.70;19.20;;;10.90;99.90;;;;;;5135601;27;38843;-78
2021/11/10 01:32:59;;;;;;;51.57;19.10;;;10.90;99.90;;;;;;5127832;27;39893;-77
2021/11/10 01:35:26;;;;;;;52.33;18.97;;;10.80;99.90;;;;;;5133928;27;37443;-77
2021/11/10 01:37:52;;;;;;;49.90;18.97;;;10.80;99.90;;;;;;5127491;27;39602;-78
2021/11/10 01:40:19;;;;;;;51.63;20.47;;;10.80;99.90;;;;;;5135485;27;39903;-78
2021/11/10 01:42:47;;;;;;;57.37;19.97;;;10.70;99.90;;;;;;5140268;27;38649;-77
2021/11/10 01:45:15;;;;;;;45.80;19.50;;;10.70;99.90;;;;;;5143630;27;37503;-78
2021/11/10 01:47:44;;;;;;;50.90;19.10;;;10.70;99.90;;;;;;5129730;27;40712;-78
2021/11/10 01:50:14;;;;;;;66.53;22.83;;;10.70;99.90;;;;;;5134946;27;38379;-77
2021/11/10 01:52:41;;;;;;;55.03;20.63;;;10.60;99.90;;;;;;5131293;27;38657;-78
2021/11/10 01:55:08;;;;;;;55.83;20.40;;;10.60;99.90;;;;;;5130543;27;39396;-78
2021/11/10 01:57:35;;;;;;;60.00;21.97;;;10.60;99.90;;;;;;5132697;27;39734;-78
2021/11/10 02:00:18;;;;;;;50.90;20.50;;;10.60;99.90;;;;;;5141327;27;39206;-78
2021/11/10 02:02:44;;;;;;;46.57;19.57;;;10.50;99.90;;;;;;5150432;27;48878;-77
2021/11/10 02:05:13;;;;;;;60.73;21.80;;;10.50;99.90;;;;;;5132551;27;38777;-78
2021/11/10 02:07:40;;;;;;;54.83;20.20;;;10.50;99.90;;;;;;5141636;27;39393;-78
2021/11/10 02:10:09;;;;;;;54.13;19.57;;;10.50;99.90;;;;;;5119555;27;39423;-78
2021/11/10 02:12:35;;;;;;;55.97;19.87;;;10.50;99.90;;;;;;5115988;27;38764;-78
2021/11/10 02:15:05;;;;;;;61.60;22.40;;;10.50;99.90;;;;;;5113090;27;39470;-77
2021/11/10 02:17:31;;;;;;;57.73;20.20;;;10.60;99.90;;;;;;5138639;27;48417;-78
2021/11/10 02:19:57;;;;;;;63.27;22.40;;;10.60;99.90;;;;;;5134220;27;38442;-78
2021/11/10 02:22:23;;;;;;;59.23;20.33;;;10.60;99.90;;;;;;5113687;27;39841;-78
2021/11/10 02:24:51;;;;;;;61.87;21.13;;;10.60;99.90;;;;;;5133199;27;38847;-77
2021/11/10 02:27:32;;;;;;;54.30;21.23;;;10.70;99.90;;;;;;5139120;27;40477;-78
2021/11/10 02:29:59;;;;;;;68.40;19.97;;;10.60;99.90;;;;;;5133228;27;38317;-77
2021/11/10 02:32:25;;;;;;;55.63;19.20;;;10.70;99.90;;;;;;5130469;27;37881;-77
2021/11/10 02:34:51;;;;;;;52.53;19.30;;;10.70;99.90;;;;;;5129242;27;37940;-77
2021/11/10 02:37:19;;;;;;;46.33;17.27;;;10.70;99.90;;;;;;5132719;27;38865;-78
2021/11/10 02:39:46;;;;;;;54.00;17.70;;;10.60;99.90;;;;;;5133176;27;38075;-77
2021/11/10 02:42:15;;;;;;;48.83;17.17;;;10.70;99.90;;;;;;5135357;27;35466;-78
2021/11/10 02:44:42;;;;;;;41.73;16.13;;;10.60;99.90;;;;;;5138746;27;35558;-78
2021/11/10 02:47:10;;;;;;;47.57;15.77;;;10.60;99.90;;;;;;5150072;27;39312;-77
2021/11/10 02:49:36;;;;;;;40.93;15.73;;;10.70;99.90;;;;;;5128082;27;38897;-77
2021/11/10 02:52:07;;;;;;;47.90;16.90;;;10.70;99.90;;;;;;5129716;27;36914;-78
2021/11/10 02:54:35;;;;;;;44.63;15.47;;;10.70;99.90;;;;;;5127580;27;47451;-78
2021/11/10 02:57:04;;;;;;;50.63;14.93;;;10.60;99.90;;;;;;5129289;27;40256;-78
2021/11/10 02:59:30;;;;;;;48.97;14.63;;;10.60;99.90;;;;;;5136544;27;48454;-78
2021/11/10 03:01:59;;;;;;;50.27;14.67;;;10.60;99.90;;;;;;5136245;27;38220;-78
2021/11/10 03:04:31;;;;;;;40.17;14.97;;;10.60;99.90;;;;;;5152041;27;38098;-78
2021/11/10 03:06:57;;;;;;;40.75;14.77;;;10.60;99.90;;;;;;5148891;27;38617;-78
2021/11/10 03:09:26;;;;;;;45.30;15.17;;;10.60;99.90;;;;;;5157224;27;38494;-78
2021/11/10 03:11:59;;;;;;;40.13;14.50;;;10.60;99.90;;;;;;5152352;27;38099;-77
2021/11/10 03:14:27;;;;;;;34.95;13.48;;;10.60;99.90;;;;;;5152437;27;36531;-77
2021/11/10 03:16:53;;;;;;;29.17;13.33;;;10.60;99.90;;;;;;5136184;27;38686;-78
2021/11/10 03:19:20;;;;;;;36.07;14.57;;;10.60;99.90;;;;;;5137834;27;37205;-78
2021/11/10 03:21:47;;;;;;;38.43;14.00;;;10.60;99.90;;;;;;5132932;27;37527;-79
2021/11/10 03:24:14;;;;;;;38.03;14.93;;;10.60;99.90;;;;;;5136701;27;36409;-78
2021/11/10 03:26:42;;;;;;;40.33;13.80;;;10.60;99.90;;;;;;5157167;27;39260;-78
2021/11/10 03:29:08;;;;;;;30.77;12.63;;;10.60;99.90;;;;;;5141204;27;37524;-79
2021/11/10 03:31:36;;;;;;;33.38;13.18;;;10.60;99.90;;;;;;5160637;27;39228;-78
2021/11/10 03:34:03;;;;;;;35.57;13.90;;;10.60;99.90;;;;;;5156644;27;36936;-78
2021/11/10 03:36:30;;;;;;;31.30;13.80;;;10.60;99.90;;;;;;5150215;27;39158;-77
2021/11/10 03:38:56;;;;;;;38.07;13.60;;;10.60;99.90;;;;;;5139343;27;38963;-78
2021/11/10 03:41:23;;;;;;;40.53;13.57;;;10.60;99.90;;;;;;5141439;27;38706;-78
2021/11/10 03:43:52;;;;;;;37.20;12.33;;;10.70;99.90;;;;;;5143648;27;37021;-78
2021/11/10 03:46:21;;;;;;;41.57;13.77;;;10.60;99.90;;;;;;5117136;27;37828;-78
2021/11/10 03:48:48;;;;;;;34.37;13.47;;;10.60;99.90;;;;;;5138150;27;38993;-79
2021/11/10 03:51:15;;;;;;;36.23;11.80;;;10.60;99.90;;;;;;5139230;27;39026;-78
2021/11/10 03:53:42;;;;;;;36.73;12.33;;;10.70;99.90;;;;;;5128667;27;37447;-78
2021/11/10 03:56:08;;;;;;;35.23;13.47;;;10.70;99.90;;;;;;5132141;27;38659;-78
2021/11/10 03:58:35;;;;;;;33.23;12.33;;;10.70;99.90;;;;;;5143057;27;38288;-78
2021/11/10 04:01:01;;;;;;;35.90;12.80;;;10.60;99.90;;;;;;5142059;27;37990;-77
2021/11/10 04:03:27;;;;;;;30.03;12.27;;;10.70;99.90;;;;;;5134910;27;46936;-77
2021/11/10 04:05:54;;;;;;;34.60;13.37;;;10.70;99.90;;;;;;5133509;27;39263;-77
2021/11/10 04:08:21;;;;;;;33.23;12.40;;;10.70;99.90;;;;;;5144095;27;39583;-76
2021/11/10 04:10:48;;;;;;;28.77;11.63;;;10.70;99.90;;;;;;5141820;27;37782;-77
2021/11/10 04:13:15;;;;;;;32.20;12.10;;;10.80;99.90;;;;;;5121663;27;38390;-79
2021/11/10 04:15:42;;;;;;;34.97;12.57;;;10.70;99.90;;;;;;5117129;27;38704;-78
2021/11/10 04:18:08;;;;;;;41.38;12.82;;;10.60;99.90;;;;;;5143604;27;39154;-78
2021/11/10 04:20:35;;;;;;;30.07;10.93;;;10.60;99.90;;;;;;5133778;27;37671;-77
2021/11/10 04:23:01;;;;;;;39.23;13.63;;;10.50;99.90;;;;;;5134791;27;36410;-75
2021/11/10 04:25:27;;;;;;;37.53;12.70;;;10.40;99.90;;;;;;5127934;27;47124;-76
2021/11/10 04:27:54;;;;;;;30.57;11.87;;;10.40;99.90;;;;;;5133026;27;40090;-77
2021/11/10 04:30:21;;;;;;;34.93;12.37;;;10.40;99.90;;;;;;5137710;27;38132;-77
2021/11/10 04:32:47;;;;;;;35.50;11.90;;;10.30;99.90;;;;;;5133320;27;36740;-76
2021/11/10 04:35:15;;;;;;;33.00;11.93;;;10.30;99.90;;;;;;5133535;27;38265;-77
2021/11/10 04:37:43;;;;;;;35.97;12.07;;;10.20;99.90;;;;;;5139358;27;39308;-76
2021/11/10 04:40:10;;;;;;;27.17;11.03;;;10.20;99.90;;;;;;5126517;27;37957;-75
2021/11/10 04:42:38;;;;;;;32.70;12.37;;;10.30;99.90;;;;;;5123479;27;36221;-78
2021/11/10 04:45:10;;;;;;;35.87;12.07;;;10.30;99.90;;;;;;5121376;27;37682;-78
2021/11/10 04:47:37;;;;;;;33.35;11.98;;;10.30;99.90;;;;;;5126301;27;46849;-78
2021/11/10 04:50:05;;;;;;;30.10;12.50;;;10.30;99.90;;;;;;5129151;27;37825;-77
2021/11/10 04:52:36;;;;;;;28.60;12.63;;;10.30;99.90;;;;;;5135676;27;48062;-78
2021/11/10 04:55:05;;;;;;;32.13;12.90;;;10.20;99.90;;;;;;5110779;27;40645;-77
2021/11/10 04:57:31;;;;;;;30.07;11.20;;;10.20;99.90;;;;;;5109125;27;47441;-76
2021/11/10 04:59:57;;;;;;;31.07;11.63;;;10.10;99.90;;;;;;5134165;27;38050;-78
2021/11/10 05:02:24;;;;;;;35.23;12.57;;;10.20;99.90;;;;;;5133412;27;40775;-77
2021/11/10 05:04:51;;;;;;;29.67;12.47;;;10.20;99.90;;;;;;5143744;27;39737;-77
2021/11/10 05:07:18;;;;;;;38.20;12.60;;;10.20;99.90;;;;;;5130182;27;38712;-76
2021/11/10 05:09:45;;;;;;;37.27;12.60;;;10.20;99.90;;;;;;5158238;27;41941;-78
2021/11/10 05:12:12;;;;;;;32.03;11.93;;;10.10;99.90;;;;;;5164031;27;36796;-77
2021/11/10 05:14:38;;;;;;;36.43;12.83;;;10.10;99.90;;;;;;5159250;27;38715;-78
2021/11/10 05:17:04;;;;;;;34.23;12.30;;;10.10;99.90;;;;;;5140947;27;38465;-77
2021/11/10 05:19:31;;;;;;;30.77;11.57;;;10.10;99.90;;;;;;5161473;27;38887;-78
2021/11/10 05:21:57;;;;;;;42.83;12.03;;;10.10;99.90;;;;;;5146116;27;36839;-78
2021/11/10 05:24:26;;;;;;;34.90;11.80;;;10.10;99.90;;;;;;5152865;27;39054;-78
2021/11/10 05:26:53;;;;;;;36.27;13.47;;;10.00;99.90;;;;;;5164100;27;38533;-78
2021/11/10 05:29:20;;;;;;;27.40;12.40;;;10.00;99.90;;;;;;5163700;27;38071;-78
2021/11/10 05:31:46;;;;;;;34.23;12.53;;;10.10;99.90;;;;;;5144954;27;38687;-76
2021/11/10 05:34:13;;;;;;;26.37;11.80;;;10.00;99.90;;;;;;5140002;27;37531;-77
2021/11/10 05:36:39;;;;;;;33.00;13.30;;;10.00;99.90;;;;;;5159366;27;38805;-78
2021/11/10 05:39:07;;;;;;;38.90;13.70;;;10.00;99.90;;;;;;5142697;27;37154;-77
2021/11/10 05:41:33;;;;;;;33.87;13.27;;;9.90;99.90;;;;;;5135795;27;36248;-75
2021/11/10 05:43:59;;;;;;;32.13;12.23;;;9.90;99.90;;;;;;5140181;27;37771;-76
2021/11/10 05:46:26;;;;;;;36.17;12.97;;;9.90;99.90;;;;;;5158270;27;38318;-77
2021/11/10 05:48:52;;;;;;;30.97;11.70;;;9.80;99.90;;;;;;5156200;27;38060;-76
2021/11/10 05:51:19;;;;;;;39.67;15.27;;;9.80;99.90;;;;;;5134068;27;36505;-76
2021/11/10 05:53:46;;;;;;;30.37;12.90;;;9.80;99.90;;;;;;5141092;27;39295;-75
2021/11/10 05:56:19;;;;;;;38.40;12.93;;;9.80;99.90;;;;;;5154745;27;38517;-76
2021/11/10 05:58:46;;;;;;;38.40;13.13;;;9.80;99.90;;;;;;5142382;27;38358;-75
2021/11/10 06:01:12;;;;;;;41.17;13.37;;;9.70;99.90;;;;;;5140752;27;38911;-77
2021/11/10 06:03:38;;;;;;;34.30;13.30;;;9.70;99.90;;;;;;5138581;27;38943;-78
2021/11/10 06:06:05;;;;;;;34.67;13.33;;;9.70;99.90;;;;;;5140879;27;39128;-77
2021/11/10 06:08:36;;;;;;;39.33;14.77;;;9.70;99.90;;;;;;5155310;27;38007;-77
2021/11/10 06:11:03;;;;;;;38.80;16.03;;;9.60;99.90;;;;;;5157918;27;37574;-76
2021/11/10 06:13:30;;;;;;;38.40;13.73;;;9.60;99.90;;;;;;5155614;27;38616;-76
2021/11/10 06:15:56;;;;;;;45.93;16.13;;;9.60;99.90;;;;;;5133390;27;37552;-75
2021/11/10 06:18:22;;;;;;;44.50;15.63;;;9.60;99.90;;;;;;5144212;27;38822;-77
2021/11/10 06:20:48;;;;;;;38.57;14.93;;;9.60;99.90;;;;;;5149477;27;38465;-77
2021/11/10 06:23:14;;;;;;;34.50;14.73;;;9.60;99.90;;;;;;5132259;27;38433;-77
2021/11/10 06:25:40;;;;;;;33.30;14.40;;;9.60;99.90;;;;;;5132074;27;38359;-77
2021/11/10 06:28:06;;;;;;;33.50;14.40;;;9.50;99.90;;;;;;5133430;27;36641;-77
2021/11/10 06:30:33;;;;;;;40.27;14.00;;;9.50;99.90;;;;;;5133685;27;38031;-76
2021/11/10 06:33:00;;;;;;;42.20;15.43;;;9.40;99.90;;;;;;5142973;27;39394;-77
2021/11/10 06:35:26;;;;;;;38.93;14.63;;;9.40;99.90;;;;;;5137906;27;38803;-76
2021/11/10 06:37:52;;;;;;;32.40;13.80;;;9.40;99.90;;;;;;5135917;27;36951;-76
2021/11/10 06:40:18;;;;;;;33.90;13.90;;;9.40;99.90;;;;;;5135100;27;37727;-76
2021/11/10 06:42:45;;;;;;;41.47;14.03;;;9.40;99.90;;;;;;5141615;27;39096;-76
2021/11/10 06:45:11;;;;;;;33.50;13.13;;;9.30;99.90;;;;;;5130435;27;37740;-76
2021/11/10 06:47:37;;;;;;;38.43;14.27;;;9.40;99.90;;;;;;5132491;27;38207;-76
2021/11/10 06:50:05;;;;;;;34.50;14.03;;;9.40;99.90;;;;;;5137231;27;37161;-76
2021/11/10 06:52:31;;;;;;;35.77;13.50;;;9.40;99.90;;;;;;5128294;27;47302;-76
2021/11/10 06:54:57;;;;;;;38.70;14.63;;;9.40;99.90;;;;;;5131454;27;39590;-76
2021/11/10 06:57:25;;;;;;;35.70;13.50;;;9.30;99.90;;;;;;5134904;27;37016;-76
2021/11/10 06:59:51;;;;;;;30.97;13.73;;;9.30;99.90;;;;;;5151601;27;38112;-76
2021/11/10 07:02:18;;;;;;;32.43;13.13;;;9.30;99.90;;;;;;5150806;27;38634;-76
2021/11/10 07:04:44;;;;;;;41.63;14.17;;;9.30;99.90;;;;;;5121938;27;38710;-76
2021/11/10 07:07:10;;;;;;;37.63;14.90;;;9.30;99.90;;;;;;5134953;27;37821;-75
2021/11/10 07:09:36;;;;;;;31.57;12.90;;;9.30;99.90;;;;;;5131564;27;37885;-76
2021/11/10 07:12:02;;;;;;;40.43;14.97;;;9.30;99.90;;;;;;5140140;27;38794;-76
2021/11/10 07:14:28;;;;;;;36.67;14.37;;;9.40;99.90;;;;;;5125683;27;38523;-77
2021/11/10 07:16:55;;;;;;;34.80;14.23;;;9.40;99.90;;;;;;5142870;27;38409;-77
2021/11/10 07:19:21;;;;;;;46.73;14.43;;;9.30;99.90;;;;;;5135914;27;38000;-75
2021/11/10 07:21:47;;;;;;;31.87;13.53;;;9.30;99.90;;;;;;5137240;27;38927;-76
2021/11/10 07:24:15;;;;;;;34.40;13.33;;;9.30;99.90;;;;;;5137506;27;38487;-76
2021/11/10 07:26:42;;;;;;;41.10;14.67;;;9.40;99.90;;;;;;5138984;27;39067;-79
2021/11/10 07:29:08;;;;;;;28.97;13.87;;;9.40;99.90;;;;;;5133171;27;38046;-78
2021/11/10 07:31:34;;;;;;;38.50;15.03;;;9.50;99.90;;;;;;5133451;27;37384;-78
2021/11/10 07:34:01;;;;;;;43.40;17.27;;;9.60;99.90;;;;;;5140048;27;39064;-80
2021/11/10 07:36:29;;;;;;;45.53;17.83;;;9.60;99.90;;;;;;5146642;27;49085;-78
2021/11/10 07:38:56;;;;;;;38.03;15.60;;;9.70;99.90;;;;;;5142400;27;36988;-79
2021/11/10 07:41:27;;;;;;;40.20;16.17;;;9.70;99.90;;;;;;5134644;27;39934;-78
2021/11/10 07:43:54;;;;;;;46.77;18.27;;;9.80;99.90;;;;;;5136238;27;39060;-78
2021/11/10 07:46:23;;;;;;;35.27;16.33;;;9.80;99.90;;;;;;5138984;27;38131;-78
2021/11/10 07:48:49;;;;;;;34.93;17.27;;;9.90;99.90;;;;;;5139243;27;38979;-78
2021/11/10 07:51:19;;;;;;;40.13;17.10;;;9.90;99.90;;;;;;5143177;27;39553;-78
2021/11/10 07:53:47;;;;;;;41.67;18.70;;;9.80;99.90;;;;;;5135458;27;37479;-77
2021/11/10 07:56:14;;;;;;;38.63;18.77;;;9.80;99.90;;;;;;5141472;27;38089;-77
2021/11/10 07:58:40;;;;;;;51.53;19.30;;;9.70;99.90;;;;;;5139697;27;38289;-76
2021/11/10 08:01:09;;;;;;;48.40;20.50;;;9.60;99.90;;;;;;5134581;27;39640;-75
2021/11/10 08:03:35;;;;;;;48.00;20.07;;;9.60;99.90;;;;;;5137054;27;38854;-75
2021/11/10 08:06:03;;;;;;;38.40;18.17;;;9.60;99.90;;;;;;5145967;27;39133;-76
2021/11/10 08:08:29;;;;;;;43.77;18.80;;;9.70;99.90;;;;;;5145352;27;37210;-77
2021/11/10 08:11:00;;;;;;;47.03;19.03;;;9.60;99.90;;;;;;5133672;27;38742;-77
2021/11/10 08:13:27;;;;;;;48.27;19.57;;;9.60;99.90;;;;;;5138503;27;40576;-76
2021/11/10 08:15:56;;;;;;;43.97;20.20;;;9.60;99.90;;;;;;5145721;27;39119;-77
2021/11/10 08:18:23;;;;;;;55.43;19.10;;;9.60;99.90;;;;;;5123957;27;39055;-77
2021/11/10 08:20:49;;;;;;;54.53;21.47;;;9.50;99.90;;;;;;5135405;27;39727;-77
2021/11/10 08:23:20;;;;;;;43.13;19.63;;;9.60;99.90;;;;;;5127220;27;39964;-76
2021/11/10 08:25:48;;;;;;;51.03;20.67;;;9.60;99.90;;;;;;5140263;27;38971;-76
2021/11/10 08:28:15;;;;;;;48.87;20.87;;;9.60;99.90;;;;;;5134016;27;38919;-77
2021/11/10 08:30:42;;;;;;;51.03;22.37;;;9.70;99.90;;;;;;5131023;27;37611;-77
2021/11/10 08:33:08;;;;;;;48.60;21.17;;;9.70;99.90;;;;;;5131355;27;38842;-77
2021/11/10 08:35:34;;;;;;;54.90;22.73;;;9.60;99.90;;;;;;5141109;27;39859;-76
2021/11/10 08:38:00;;;;;;;56.70;23.93;;;9.70;99.90;;;;;;5139259;27;35923;-77
2021/11/10 08:40:26;;;;;;;49.93;22.40;;;9.70;99.90;;;;;;5136073;27;38304;-79
2021/11/10 08:42:52;;;;;;;52.77;22.10;;;9.80;99.90;;;;;;5135766;27;40371;-76
2021/11/10 08:45:25;;;;;;;46.17;20.37;;;9.70;99.90;;;;;;5142642;27;39611;-77
2021/11/10 08:47:53;;;;;;;43.70;19.50;;;9.80;99.90;;;;;;5133965;27;37974;-77
2021/11/10 08:50:21;;;;;;;41.40;18.53;;;9.90;99.90;;;;;;5123429;27;39837;-76
2021/11/10 08:52:49;;;;;;;41.87;17.30;;;10.00;99.90;;;;;;5134205;27;37024;-76
2021/11/10 08:55:17;;;;;;;38.00;17.53;;;10.10;99.90;;;;;;5114276;27;39685;-79
2021/11/10 08:57:45;;;;;;;40.33;18.10;;;10.20;99.90;;;;;;5128899;27;38313;-78
2021/11/10 09:00:18;;;;;;;40.00;17.30;;;10.30;99.90;;;;;;5124172;27;38038;-79
2021/11/10 09:02:45;;;;;;;37.92;17.45;;;10.40;99.90;;;;;;5124516;27;39087;-79
2021/11/10 09:05:13;;;;;;;37.57;17.57;;;10.50;99.90;;;;;;5118893;27;39941;-78
2021/11/10 09:07:39;;;;;;;36.90;16.00;;;10.50;99.90;;;;;;5131376;27;36405;-78
2021/11/10 09:10:08;;;;;;;36.73;15.83;;;10.50;99.90;;;;;;5135212;27;38842;-78
2021/11/10 09:12:34;;;;;;;37.77;16.37;;;10.70;99.90;;;;;;5120440;27;37794;-78
2021/11/10 09:15:00;;;;;;;34.23;16.10;;;10.60;99.90;;;;;;5146807;27;38074;-78
2021/11/10 09:17:34;;;;;;;38.67;15.67;;;10.70;99.90;;;;;;5137368;27;39626;-78
2021/11/10 09:20:02;;;;;;;35.30;16.23;;;10.80;99.90;;;;;;5133030;27;37855;-77
2021/11/10 09:22:28;;;;;;;36.80;15.88;;;10.80;99.90;;;;;;5139787;27;47113;-78
2021/11/10 09:24:54;;;;;;;33.47;15.03;;;10.90;99.90;;;;;;5135122;27;38913;-79
2021/11/10 09:27:21;;;;;;;36.78;16.27;;;10.90;99.90;;;;;;5128956;27;37833;-78
2021/11/10 09:29:47;;;;;;;34.10;14.70;;;10.90;99.90;;;;;;5141955;27;39404;-78
2021/11/10 09:32:13;;;;;;;33.83;16.58;;;11.00;99.90;;;;;;5133850;27;38378;-80
2021/11/10 09:34:40;;;;;;;34.80;14.90;;;11.00;99.90;;;;;;5134219;27;37389;-77
2021/11/10 09:37:06;;;;;;;34.03;15.13;;;11.10;99.90;;;;;;5116784;27;39218;-78
2021/11/10 09:39:32;;;;;;;37.83;16.35;;;11.00;99.90;;;;;;5140838;27;39151;-78
2021/11/10 09:41:58;;;;;;;35.92;15.38;;;11.00;99.90;;;;;;5134986;27;38326;-78
2021/11/10 09:44:25;;;;;;;36.28;16.02;;;10.80;99.90;;;;;;5138922;27;38100;-77
2021/11/10 09:46:53;;;;;;;34.67;15.57;;;10.90;99.90;;;;;;5137781;27;37496;-77
2021/11/10 09:49:20;;;;;;;40.75;17.33;;;10.90;99.90;;;;;;5129706;27;39723;-78
2021/11/10 09:51:48;;;;;;;34.97;15.77;;;11.00;99.90;;;;;;5120853;27;39191;-76
2021/11/10 09:54:16;;;;;;;33.85;15.75;;;11.10;99.90;;;;;;5135419;27;36921;-78
2021/11/10 09:56:44;;;;;;;37.78;16.02;;;11.00;99.90;;;;;;5139162;27;37277;-78
2021/11/10 09:59:10;;;;;;;36.15;16.40;;;11.10;99.90;;;;;;5127168;27;39380;-78
2021/11/10 10:01:38;;;;;;;34.90;16.30;;;11.30;99.90;;;;;;5142382;27;39369;-77
2021/11/10 10:04:06;;;;;;;43.08;17.38;;;11.20;99.90;;;;;;5133210;27;38760;-78
2021/11/10 10:06:33;;;;;;;37.65;16.98;;;11.20;99.90;;;;;;5136099;27;38312;-77
2021/11/10 10:09:00;;;;;;;35.05;17.02;;;11.20;99.90;;;;;;5137049;27;40645;-78
2021/11/10 10:11:27;;;;;;;36.65;16.65;;;11.20;99.90;;;;;;5128845;27;39004;-78
2021/11/10 10:13:53;;;;;;;34.70;15.48;;;11.10;99.90;;;;;;5155902;27;38118;-78
2021/11/10 10:16:22;;;;;;;46.42;17.80;;;11.00;99.90;;;;;;5124126;27;38441;-80
2021/11/10 10:18:49;;;;;;;35.90;16.52;;;11.00;99.90;;;;;;5142491;27;38436;-78
2021/11/10 10:21:18;;;;;;;33.10;15.38;;;11.00;99.90;;;;;;5130069;27;39758;-78
2021/11/10 10:23:47;;;;;;;37.20;14.70;;;11.00;99.90;;;;;;5135432;27;39692;-79
2021/11/10 10:26:23;;;;;;;33.00;15.13;;;10.90;99.90;;;;;;5139051;27;39338;-77
2021/11/10 10:28:58;;;;;;;36.35;15.80;;;11.00;99.90;;;;;;5137133;27;38386;-78
2021/11/10 10:31:27;;;;;;;29.40;13.57;;;11.00;99.90;;;;;;5139246;27;39135;-79
2021/11/10 10:33:56;;;;;;;27.30;13.77;;;10.90;99.90;;;;;;5133286;27;38200;-77
2021/11/10 10:36:27;;;;;;;26.47;12.93;;;10.90;99.90;;;;;;5126152;27;37865;-78
2021/11/10 10:38:59;;;;;;;26.80;12.73;;;11.00;99.90;;;;;;5131288;27;38568;-78
2021/11/10 10:41:30;;;;;;;33.10;12.98;;;11.10;99.90;;;;;;5135479;27;38362;-79
2021/11/10 10:44:05;;;;;;;27.05;12.23;;;11.20;99.90;;;;;;5136977;27;38824;-78
2021/11/10 10:46:37;;;;;;;25.13;13.07;;;11.30;99.90;;;;;;5114060;27;47158;-81
2021/11/10 10:49:22;;;;;;;23.65;13.38;;;11.40;99.90;;;;;;5130336;27;38725;-81
2021/11/10 10:52:07;;;;;;;24.27;12.27;;;11.30;99.90;;;;;;5115510;27;40002;-80
2021/11/10 10:54:34;;;;;;;29.60;12.45;;;11.20;99.90;;;;;;5109695;27;47254;-77
2021/11/10 10:57:02;;;;;;;24.98;12.20;;;11.30;99.90;;;;;;5112229;27;41370;-78
2021/11/10 10:59:29;;;;;;;24.45;10.60;;;11.50;99.90;;;;;;5121777;27;47538;-79
2021/11/10 11:01:57;;;;;;;20.38;11.40;;;11.70;99.90;;;;;;5136522;27;38220;-79
2021/11/10 11:04:29;;;;;;;21.05;10.80;;;11.90;99.90;;;;;;5139553;27;37758;-79
2021/11/10 11:07:05;;;;;;;24.80;11.85;;;11.90;99.90;;;;;;5146580;27;37352;-78
2021/11/10 11:09:41;;;;;;;22.13;11.02;;;11.80;99.90;;;;;;5120999;27;46698;-79
2021/11/10 11:12:30;;;;;;;22.15;10.63;;;11.70;99.90;;;;;;5125711;27;39135;-79
2021/11/10 11:15:14;;;;;;;23.13;10.63;;;11.70;99.90;;;;;;5126833;27;37618;-78
2021/11/10 11:17:44;;;;;;;21.90;10.98;;;11.60;99.90;;;;;;5137784;27;47615;-79
2021/11/10 11:20:22;;;;;;;19.60;10.43;;;11.90;99.90;;;;;;5137861;27;37776;-78
2021/11/10 11:22:57;;;;;;;19.35;10.57;;;11.90;99.90;;;;;;5136585;27;37720;-78
2021/11/10 11:25:35;;;;;;;20.98;11.23;;;12.00;99.90;;;;;;5132104;27;38451;-79
2021/11/10 11:28:06;;;;;;;21.60;11.13;;;12.20;99.90;;;;;;5133819;27;37208;-78
2021/11/10 11:30:38;;;;;;;27.30;12.52;;;12.20;99.90;;;;;;5162430;27;39663;-80
2021/11/10 11:33:09;;;;;;;20.63;10.45;;;12.50;99.90;;;;;;5156802;27;38608;-79
2021/11/10 11:35:39;;;;;;;21.40;11.15;;;12.50;99.90;;;;;;5155318;27;36956;-78
2021/11/10 11:38:10;;;;;;;24.02;11.38;;;12.60;99.90;;;;;;5152386;27;37625;-79
2021/11/10 11:40:38;;;;;;;20.87;11.40;;;12.60;99.90;;;;;;5151148;27;39615;-79
2021/11/10 11:43:06;;;;;;;20.48;11.25;;;12.50;99.90;;;;;;5133621;27;37318;-78
2021/11/10 11:45:36;;;;;;;28.27;13.13;;;12.50;99.90;;;;;;5136600;27;39039;-79
2021/11/10 11:48:04;;;;;;;25.70;12.25;;;12.30;99.90;;;;;;5140677;27;38472;-79
2021/11/10 11:50:30;;;;;;;24.30;12.57;;;12.30;99.90;;;;;;5120013;27;37557;-79
2021/11/10 11:52:58;;;;;;;23.58;12.27;;;12.30;99.90;;;;;;5117077;27;37200;-78
2021/11/10 11:55:28;;;;;;;27.27;13.27;;;12.30;99.90;;;;;;5134038;27;38230;-80
2021/11/10 11:58:03;;;;;;;24.92;11.48;;;12.50;99.90;;;;;;5143218;27;37278;-80
2021/11/10 12:00:38;;;;;;;26.67;11.52;;;12.30;99.90;;;;;;5137793;27;47488;-80
2021/11/10 12:03:20;;;;;;;23.77;12.02;;;11.90;99.90;;;;;;5135479;27;39160;-79
2021/11/10 12:05:47;;;;;;;27.55;12.57;;;12.00;99.90;;;;;;5138771;27;37504;-78
2021/11/10 12:08:44;;;;;;;24.70;12.05;;;12.30;99.90;;;;;;5132055;27;36270;-77
2021/11/10 12:11:41;;;;;;;24.25;11.90;;;12.40;99.90;;;;;;5138177;27;39137;-78
2021/11/10 12:14:31;;;;;;;30.55;12.10;;;12.20;99.90;;;;;;5130863;27;38332;-77
2021/11/10 12:17:05;;;;;;;21.88;11.25;;;12.10;99.90;;;;;;5132333;27;39132;-78
2021/11/10 12:19:53;;;;;;;20.77;11.27;;;12.00;99.90;;;;;;5130971;27;47314;-79
2021/11/10 12:22:21;;;;;;;25.85;12.10;;;12.20;99.90;;;;;;5128840;27;39683;-78
2021/11/10 12:24:51;;;;;;;25.30;11.73;;;12.40;99.90;;;;;;5138352;27;38005;-79
2021/11/10 12:27:18;;;;;;;22.15;11.68;;;12.30;99.90;;;;;;5132393;27;38469;-78
2021/11/10 12:29:44;;;;;;;27.40;12.10;;;12.30;99.90;;;;;;5136145;27;39236;-78
2021/11/10 12:32:11;;;;;;;25.90;12.43;;;12.10;99.90;;;;;;5130599;27;39512;-78